sensor_id;sensor_type;location;lat;lon;timestamp;P1;durP1;ratioP1;P2;durP2;ratioP2
34242;SDS011;20504;43.214;27.920;2023-02-28T00:00:03;5.10;;;4.07;;
34242;SDS011;20504;43.214;27.920;2023-02-28T00:02:42;6.30;;;5.50;;
34242;SDS011;20504;43.214;27.920;2023-02-28T00:05:08;6.35;;;5.63;;
34242;SDS011;20504;43.214;27.920;2023-02-28T00:07:36;8.60;;;5.30;;
34242;SDS011;20504;43.214;27.920;2023-02-28T00:10:02;6.93;;;5.35;;
34242;SDS011;20504;43.214;27.920;2023-02-28T00:12:31;7.18;;;5.82;;
34242;SDS011;20504;43.214;27.920;2023-02-28T00:14:57;6.13;;;5.38;;
34242;SDS011;20504;43.214;27.920;2023-02-28T00:17:22;7.03;;;5.57;;
34242;SDS011;20504;43.214;27.920;2023-02-28T00:19:48;5.87;;;5.27;;
34242;SDS011;20504;43.214;27.920;2023-02-28T00:22:15;5.90;;;5.30;;
34242;SDS011;20504;43.214;27.920;2023-02-28T00:24:42;6.35;;;5.07;;
34242;SDS011;20504;43.214;27.920;2023-02-28T00:27:08;6.37;;;5.30;;
34242;SDS011;20504;43.214;27.920;2023-02-28T00:29:34;6.67;;;5.37;;
34242;SDS011;20504;43.214;27.920;2023-02-28T00:31:59;7.20;;;5.77;;
34242;SDS011;20504;43.214;27.920;2023-02-28T00:34:25;7.07;;;5.83;;
34242;SDS011;20504;43.214;27.920;2023-02-28T00:36:50;7.07;;;5.47;;
34242;SDS011;20504;43.214;27.920;2023-02-28T00:39:16;9.13;;;6.07;;
34242;SDS011;20504;43.214;27.920;2023-02-28T00:41:41;7.33;;;5.73;;
34242;SDS011;20504;43.214;27.920;2023-02-28T00:44:07;6.60;;;5.97;;
34242;SDS011;20504;43.214;27.920;2023-02-28T00:46:33;6.53;;;5.93;;
34242;SDS011;20504;43.214;27.920;2023-02-28T00:48:58;7.10;;;5.70;;
34242;SDS011;20504;43.214;27.920;2023-02-28T00:51:24;8.57;;;6.00;;
34242;SDS011;20504;43.214;27.920;2023-02-28T00:53:49;8.60;;;5.87;;
34242;SDS011;20504;43.214;27.920;2023-02-28T00:56:15;5.97;;;5.13;;
34242;SDS011;20504;43.214;27.920;2023-02-28T00:58:40;5.97;;;5.17;;
34242;SDS011;20504;43.214;27.920;2023-02-28T01:01:06;7.70;;;5.73;;
34242;SDS011;20504;43.214;27.920;2023-02-28T01:03:31;11.13;;;6.30;;
34242;SDS011;20504;43.214;27.920;2023-02-28T01:05:57;6.60;;;5.70;;
34242;SDS011;20504;43.214;27.920;2023-02-28T01:08:22;6.93;;;6.20;;
34242;SDS011;20504;43.214;27.920;2023-02-28T01:10:48;7.37;;;5.30;;
34242;SDS011;20504;43.214;27.920;2023-02-28T01:13:14;6.50;;;5.80;;
34242;SDS011;20504;43.214;27.920;2023-02-28T01:15:41;6.37;;;5.77;;
34242;SDS011;20504;43.214;27.920;2023-02-28T01:18:10;5.88;;;5.28;;
34242;SDS011;20504;43.214;27.920;2023-02-28T01:20:36;8.13;;;6.73;;
34242;SDS011;20504;43.214;27.920;2023-02-28T01:23:02;7.88;;;6.60;;
34242;SDS011;20504;43.214;27.920;2023-02-28T01:25:28;9.33;;;7.60;;
34242;SDS011;20504;43.214;27.920;2023-02-28T01:27:53;8.90;;;6.43;;
34242;SDS011;20504;43.214;27.920;2023-02-28T01:30:19;10.53;;;7.00;;
34242;SDS011;20504;43.214;27.920;2023-02-28T01:32:44;7.50;;;6.70;;
34242;SDS011;20504;43.214;27.920;2023-02-28T01:35:10;8.47;;;7.40;;
34242;SDS011;20504;43.214;27.920;2023-02-28T01:37:35;7.43;;;6.60;;
34242;SDS011;20504;43.214;27.920;2023-02-28T01:40:01;9.07;;;8.07;;
34242;SDS011;20504;43.214;27.920;2023-02-28T01:42:27;10.13;;;9.07;;
34242;SDS011;20504;43.214;27.920;2023-02-28T01:45:00;10.50;;;8.77;;
34242;SDS011;20504;43.214;27.920;2023-02-28T01:47:33;10.60;;;7.45;;
34242;SDS011;20504;43.214;27.920;2023-02-28T01:50:02;9.68;;;8.60;;
34242;SDS011;20504;43.214;27.920;2023-02-28T01:52:32;10.90;;;8.43;;
34242;SDS011;20504;43.214;27.920;2023-02-28T01:54:59;8.98;;;7.88;;
34242;SDS011;20504;43.214;27.920;2023-02-28T01:57:37;11.27;;;8.30;;
34242;SDS011;20504;43.214;27.920;2023-02-28T02:00:09;9.95;;;8.43;;
34242;SDS011;20504;43.214;27.920;2023-02-28T02:02:39;9.85;;;8.23;;
34242;SDS011;20504;43.214;27.920;2023-02-28T02:05:09;9.77;;;8.23;;
34242;SDS011;20504;43.214;27.920;2023-02-28T02:07:41;9.75;;;8.27;;
34242;SDS011;20504;43.214;27.920;2023-02-28T02:10:17;10.88;;;8.13;;
34242;SDS011;20504;43.214;27.920;2023-02-28T02:15:16;9.57;;;7.95;;
34242;SDS011;20504;43.214;27.920;2023-02-28T02:17:57;8.88;;;7.60;;
34242;SDS011;20504;43.214;27.920;2023-02-28T02:23:27;8.80;;;7.70;;
34242;SDS011;20504;43.214;27.920;2023-02-28T02:34:12;7.28;;;6.35;;
34242;SDS011;20504;43.214;27.920;2023-02-28T02:36:51;7.47;;;6.57;;
34242;SDS011;20504;43.214;27.920;2023-02-28T02:42:20;8.35;;;6.10;;
34242;SDS011;20504;43.214;27.920;2023-02-28T02:44:52;6.47;;;5.88;;
34242;SDS011;20504;43.214;27.920;2023-02-28T02:47:26;7.72;;;6.30;;
34242;SDS011;20504;43.214;27.920;2023-02-28T02:49:55;5.72;;;5.22;;
34242;SDS011;20504;43.214;27.920;2023-02-28T02:52:28;5.93;;;5.35;;
34242;SDS011;20504;43.214;27.920;2023-02-28T02:55:00;6.90;;;5.95;;
34242;SDS011;20504;43.214;27.920;2023-02-28T02:58:01;6.60;;;5.82;;
34242;SDS011;20504;43.214;27.920;2023-02-28T03:00:24;5.57;;;4.93;;
34242;SDS011;20504;43.214;27.920;2023-02-28T03:03:03;6.45;;;5.10;;
34242;SDS011;20504;43.214;27.920;2023-02-28T03:05:32;6.10;;;5.10;;
34242;SDS011;20504;43.214;27.920;2023-02-28T03:08:04;4.93;;;4.40;;
34242;SDS011;20504;43.214;27.920;2023-02-28T03:10:41;9.18;;;4.35;;
34242;SDS011;20504;43.214;27.920;2023-02-28T03:26:52;5.60;;;5.05;;
34242;SDS011;20504;43.214;27.920;2023-02-28T03:29:30;6.25;;;4.80;;
34242;SDS011;20504;43.214;27.920;2023-02-28T03:32:16;5.72;;;4.85;;
34242;SDS011;20504;43.214;27.920;2023-02-28T03:34:51;5.70;;;4.90;;
34242;SDS011;20504;43.214;27.920;2023-02-28T03:37:28;6.03;;;5.40;;
34242;SDS011;20504;43.214;27.920;2023-02-28T03:39:58;8.27;;;6.10;;
34242;SDS011;20504;43.214;27.920;2023-02-28T03:42:28;7.38;;;6.43;;
34242;SDS011;20504;43.214;27.920;2023-02-28T03:45:00;6.50;;;5.57;;
34242;SDS011;20504;43.214;27.920;2023-02-28T03:47:40;8.68;;;6.88;;
34242;SDS011;20504;43.214;27.920;2023-02-28T03:50:27;7.03;;;6.32;;
34242;SDS011;20504;43.214;27.920;2023-02-28T03:55:59;10.07;;;7.10;;
34242;SDS011;20504;43.214;27.920;2023-02-28T03:58:48;7.35;;;6.60;;
34242;SDS011;20504;43.214;27.920;2023-02-28T04:01:53;8.45;;;7.57;;
34242;SDS011;20504;43.214;27.920;2023-02-28T04:04:15;9.23;;;7.03;;
34242;SDS011;20504;43.214;27.920;2023-02-28T04:06:41;8.60;;;7.50;;
34242;SDS011;20504;43.214;27.920;2023-02-28T04:09:09;8.77;;;7.57;;
34242;SDS011;20504;43.214;27.920;2023-02-28T04:11:45;11.23;;;7.78;;
34242;SDS011;20504;43.214;27.920;2023-02-28T04:14:16;9.60;;;7.65;;
34242;SDS011;20504;43.214;27.920;2023-02-28T04:16:42;10.68;;;8.35;;
34242;SDS011;20504;43.214;27.920;2023-02-28T04:19:09;10.17;;;8.37;;
34242;SDS011;20504;43.214;27.920;2023-02-28T04:21:43;8.30;;;7.38;;
34242;SDS011;20504;43.214;27.920;2023-02-28T04:24:10;11.65;;;8.30;;
34242;SDS011;20504;43.214;27.920;2023-02-28T04:26:43;10.50;;;7.43;;
34242;SDS011;20504;43.214;27.920;2023-02-28T04:29:11;10.48;;;7.38;;
34242;SDS011;20504;43.214;27.920;2023-02-28T04:31:38;9.30;;;7.40;;
34242;SDS011;20504;43.214;27.920;2023-02-28T04:34:03;10.20;;;7.70;;
34242;SDS011;20504;43.214;27.920;2023-02-28T04:36:29;11.70;;;8.50;;
34242;SDS011;20504;43.214;27.920;2023-02-28T04:38:54;8.83;;;7.73;;
34242;SDS011;20504;43.214;27.920;2023-02-28T04:41:20;12.03;;;7.53;;
34242;SDS011;20504;43.214;27.920;2023-02-28T04:43:46;10.75;;;8.70;;
34242;SDS011;20504;43.214;27.920;2023-02-28T04:46:12;12.52;;;9.25;;
34242;SDS011;20504;43.214;27.920;2023-02-28T04:48:38;13.07;;;9.70;;
34242;SDS011;20504;43.214;27.920;2023-02-28T04:51:08;11.18;;;9.23;;
34242;SDS011;20504;43.214;27.920;2023-02-28T04:53:36;11.55;;;9.50;;
34242;SDS011;20504;43.214;27.920;2023-02-28T04:56:03;12.68;;;9.95;;
34242;SDS011;20504;43.214;27.920;2023-02-28T04:58:29;14.93;;;10.43;;
34242;SDS011;20504;43.214;27.920;2023-02-28T05:01:00;15.07;;;10.23;;
34242;SDS011;20504;43.214;27.920;2023-02-28T05:03:27;15.23;;;10.18;;
34242;SDS011;20504;43.214;27.920;2023-02-28T05:05:53;15.03;;;10.97;;
34242;SDS011;20504;43.214;27.920;2023-02-28T05:08:18;16.43;;;11.63;;
34242;SDS011;20504;43.214;27.920;2023-02-28T05:10:44;14.87;;;10.70;;
34242;SDS011;20504;43.214;27.920;2023-02-28T05:13:11;15.97;;;12.70;;
34242;SDS011;20504;43.214;27.920;2023-02-28T05:15:37;20.05;;;12.68;;
34242;SDS011;20504;43.214;27.920;2023-02-28T05:18:03;15.87;;;10.33;;
34242;SDS011;20504;43.214;27.920;2023-02-28T05:20:28;21.83;;;14.53;;
34242;SDS011;20504;43.214;27.920;2023-02-28T05:22:54;21.93;;;14.03;;
34242;SDS011;20504;43.214;27.920;2023-02-28T05:25:20;20.10;;;13.33;;
34242;SDS011;20504;43.214;27.920;2023-02-28T05:27:49;19.02;;;13.52;;
34242;SDS011;20504;43.214;27.920;2023-02-28T05:30:15;24.02;;;15.25;;
34242;SDS011;20504;43.214;27.920;2023-02-28T05:32:41;25.07;;;15.00;;
34242;SDS011;20504;43.214;27.920;2023-02-28T05:35:10;23.67;;;16.08;;
34242;SDS011;20504;43.214;27.920;2023-02-28T05:37:37;24.23;;;15.27;;
34242;SDS011;20504;43.214;27.920;2023-02-28T05:40:03;22.05;;;14.75;;
34242;SDS011;20504;43.214;27.920;2023-02-28T05:42:40;24.67;;;15.55;;
34242;SDS011;20504;43.214;27.920;2023-02-28T05:45:06;17.27;;;11.68;;
34242;SDS011;20504;43.214;27.920;2023-02-28T05:47:32;23.55;;;15.45;;
34242;SDS011;20504;43.214;27.920;2023-02-28T05:49:58;27.20;;;16.30;;
34242;SDS011;20504;43.214;27.920;2023-02-28T05:52:24;23.50;;;15.93;;
34242;SDS011;20504;43.214;27.920;2023-02-28T05:54:49;30.00;;;18.10;;
34242;SDS011;20504;43.214;27.920;2023-02-28T05:57:14;26.97;;;16.70;;
34242;SDS011;20504;43.214;27.920;2023-02-28T05:59:40;30.03;;;19.93;;
34242;SDS011;20504;43.214;27.920;2023-02-28T06:02:06;31.10;;;19.40;;
34242;SDS011;20504;43.214;27.920;2023-02-28T06:04:37;36.33;;;21.17;;
34242;SDS011;20504;43.214;27.920;2023-02-28T06:07:02;37.37;;;20.83;;
34242;SDS011;20504;43.214;27.920;2023-02-28T06:09:28;35.13;;;21.03;;
34242;SDS011;20504;43.214;27.920;2023-02-28T06:11:54;40.77;;;21.47;;
34242;SDS011;20504;43.214;27.920;2023-02-28T06:14:20;39.97;;;22.07;;
34242;SDS011;20504;43.214;27.920;2023-02-28T06:16:46;39.20;;;21.63;;
34242;SDS011;20504;43.214;27.920;2023-02-28T06:19:12;23.10;;;14.07;;
34242;SDS011;20504;43.214;27.920;2023-02-28T06:21:37;32.67;;;19.60;;
34242;SDS011;20504;43.214;27.920;2023-02-28T06:24:03;31.93;;;18.80;;
34242;SDS011;20504;43.214;27.920;2023-02-28T06:26:29;36.20;;;20.38;;
34242;SDS011;20504;43.214;27.920;2023-02-28T06:28:55;35.50;;;19.17;;
34242;SDS011;20504;43.214;27.920;2023-02-28T06:31:21;35.30;;;19.10;;
34242;SDS011;20504;43.214;27.920;2023-02-28T06:33:47;35.70;;;20.03;;
34242;SDS011;20504;43.214;27.920;2023-02-28T06:36:13;29.60;;;18.38;;
34242;SDS011;20504;43.214;27.920;2023-02-28T06:38:40;27.80;;;16.80;;
34242;SDS011;20504;43.214;27.920;2023-02-28T06:41:07;28.88;;;17.33;;
34242;SDS011;20504;43.214;27.920;2023-02-28T06:46:01;25.58;;;15.77;;
34242;SDS011;20504;43.214;27.920;2023-02-28T06:48:28;27.13;;;16.95;;
34242;SDS011;20504;43.214;27.920;2023-02-28T06:51:07;26.47;;;16.97;;
34242;SDS011;20504;43.214;27.920;2023-02-28T06:53:35;25.23;;;15.35;;
34242;SDS011;20504;43.214;27.920;2023-02-28T06:56:04;26.88;;;16.95;;
34242;SDS011;20504;43.214;27.920;2023-02-28T06:58:31;31.52;;;16.58;;
34242;SDS011;20504;43.214;27.920;2023-02-28T07:00:57;26.27;;;15.43;;
34242;SDS011;20504;43.214;27.920;2023-02-28T07:03:22;32.17;;;18.53;;
34242;SDS011;20504;43.214;27.920;2023-02-28T07:05:48;30.63;;;17.67;;
34242;SDS011;20504;43.214;27.920;2023-02-28T07:08:13;27.23;;;16.20;;
34242;SDS011;20504;43.214;27.920;2023-02-28T07:10:39;23.80;;;15.60;;
34242;SDS011;20504;43.214;27.920;2023-02-28T07:13:06;25.38;;;15.27;;
34242;SDS011;20504;43.214;27.920;2023-02-28T07:15:33;25.77;;;15.73;;
34242;SDS011;20504;43.214;27.920;2023-02-28T07:17:58;17.60;;;11.37;;
34242;SDS011;20504;43.214;27.920;2023-02-28T07:20:24;18.40;;;11.57;;
34242;SDS011;20504;43.214;27.920;2023-02-28T07:22:50;23.23;;;14.20;;
34242;SDS011;20504;43.214;27.920;2023-02-28T07:25:30;24.10;;;15.07;;
34242;SDS011;20504;43.214;27.920;2023-02-28T07:27:55;24.45;;;15.23;;
34242;SDS011;20504;43.214;27.920;2023-02-28T07:30:21;24.73;;;15.43;;
34242;SDS011;20504;43.214;27.920;2023-02-28T07:32:47;25.83;;;16.33;;
34242;SDS011;20504;43.214;27.920;2023-02-28T07:35:12;25.50;;;15.47;;
34242;SDS011;20504;43.214;27.920;2023-02-28T07:37:40;22.30;;;13.98;;
34242;SDS011;20504;43.214;27.920;2023-02-28T07:40:07;24.02;;;14.38;;
34242;SDS011;20504;43.214;27.920;2023-02-28T07:42:39;23.55;;;14.75;;
34242;SDS011;20504;43.214;27.920;2023-02-28T07:45:06;22.73;;;13.15;;
34242;SDS011;20504;43.214;27.920;2023-02-28T07:47:32;14.75;;;10.40;;
34242;SDS011;20504;43.214;27.920;2023-02-28T07:49:57;21.60;;;13.23;;
34242;SDS011;20504;43.214;27.920;2023-02-28T07:52:23;19.00;;;12.43;;
34242;SDS011;20504;43.214;27.920;2023-02-28T07:54:50;20.92;;;13.73;;
34242;SDS011;20504;43.214;27.920;2023-02-28T07:57:15;20.02;;;13.23;;
34242;SDS011;20504;43.214;27.920;2023-02-28T07:59:42;22.40;;;14.02;;
34242;SDS011;20504;43.214;27.920;2023-02-28T08:02:17;16.67;;;12.50;;
34242;SDS011;20504;43.214;27.920;2023-02-28T08:04:43;17.45;;;12.13;;
34242;SDS011;20504;43.214;27.920;2023-02-28T08:07:09;17.00;;;11.63;;
34242;SDS011;20504;43.214;27.920;2023-02-28T08:09:40;20.50;;;12.35;;
34242;SDS011;20504;43.214;27.920;2023-02-28T08:12:06;20.75;;;12.57;;
34242;SDS011;20504;43.214;27.920;2023-02-28T08:14:32;18.38;;;11.88;;
34242;SDS011;20504;43.214;27.920;2023-02-28T08:16:58;17.52;;;11.35;;
34242;SDS011;20504;43.214;27.920;2023-02-28T08:19:24;16.33;;;10.77;;
34242;SDS011;20504;43.214;27.920;2023-02-28T08:21:49;16.20;;;10.67;;
34242;SDS011;20504;43.214;27.920;2023-02-28T08:24:15;17.43;;;12.07;;
34242;SDS011;20504;43.214;27.920;2023-02-28T08:26:40;18.77;;;11.57;;
34242;SDS011;20504;43.214;27.920;2023-02-28T08:29:06;16.03;;;11.50;;
34242;SDS011;20504;43.214;27.920;2023-02-28T08:31:31;16.57;;;11.47;;
34242;SDS011;20504;43.214;27.920;2023-02-28T08:33:57;17.40;;;11.63;;
34242;SDS011;20504;43.214;27.920;2023-02-28T08:36:24;19.65;;;12.43;;
34242;SDS011;20504;43.214;27.920;2023-02-28T08:38:51;19.67;;;13.32;;
34242;SDS011;20504;43.214;27.920;2023-02-28T08:41:17;17.43;;;12.10;;
34242;SDS011;20504;43.214;27.920;2023-02-28T08:43:42;19.53;;;12.63;;
34242;SDS011;20504;43.214;27.920;2023-02-28T08:46:10;14.13;;;9.83;;
34242;SDS011;20504;43.214;27.920;2023-02-28T08:48:38;21.00;;;13.32;;
34242;SDS011;20504;43.214;27.920;2023-02-28T08:51:05;21.43;;;11.87;;
34242;SDS011;20504;43.214;27.920;2023-02-28T08:53:34;17.35;;;12.43;;
34242;SDS011;20504;43.214;27.920;2023-02-28T08:58:28;19.17;;;12.65;;
34242;SDS011;20504;43.214;27.920;2023-02-28T09:00:54;16.37;;;9.53;;
34242;SDS011;20504;43.214;27.920;2023-02-28T09:03:20;19.65;;;11.60;;
34242;SDS011;20504;43.214;27.920;2023-02-28T09:08:22;22.27;;;13.48;;
34242;SDS011;20504;43.214;27.920;2023-02-28T09:10:49;18.05;;;11.05;;
34242;SDS011;20504;43.214;27.920;2023-02-28T09:13:14;16.47;;;11.13;;
34242;SDS011;20504;43.214;27.920;2023-02-28T09:15:40;16.03;;;10.43;;
34242;SDS011;20504;43.214;27.920;2023-02-28T09:18:05;14.43;;;10.77;;
34242;SDS011;20504;43.214;27.920;2023-02-28T09:20:31;15.57;;;9.60;;
34242;SDS011;20504;43.214;27.920;2023-02-28T09:22:56;13.07;;;9.93;;
34242;SDS011;20504;43.214;27.920;2023-02-28T09:25:22;13.00;;;7.50;;
34242;SDS011;20504;43.214;27.920;2023-02-28T09:27:47;9.13;;;6.70;;
34242;SDS011;20504;43.214;27.920;2023-02-28T09:30:13;12.17;;;9.23;;
34242;SDS011;20504;43.214;27.920;2023-02-28T09:32:39;10.67;;;7.53;;
34242;SDS011;20504;43.214;27.920;2023-02-28T09:35:04;12.67;;;7.57;;
34242;SDS011;20504;43.214;27.920;2023-02-28T09:37:30;16.00;;;10.38;;
34242;SDS011;20504;43.214;27.920;2023-02-28T09:39:56;25.17;;;12.37;;
34242;SDS011;20504;43.214;27.920;2023-02-28T09:42:24;23.77;;;13.93;;
34242;SDS011;20504;43.214;27.920;2023-02-28T09:44:55;16.95;;;11.45;;
34242;SDS011;20504;43.214;27.920;2023-02-28T09:47:40;17.55;;;11.43;;
34242;SDS011;20504;43.214;27.920;2023-02-28T09:50:22;16.55;;;10.45;;
34242;SDS011;20504;43.214;27.920;2023-02-28T09:52:55;16.30;;;11.13;;
34242;SDS011;20504;43.214;27.920;2023-02-28T09:55:39;14.90;;;10.43;;
34242;SDS011;20504;43.214;27.920;2023-02-28T09:58:22;16.08;;;10.13;;
34242;SDS011;20504;43.214;27.920;2023-02-28T10:01:00;15.40;;;10.88;;
34242;SDS011;20504;43.214;27.920;2023-02-28T10:03:35;14.68;;;9.88;;
34242;SDS011;20504;43.214;27.920;2023-02-28T10:11:38;15.35;;;10.10;;
34242;SDS011;20504;43.214;27.920;2023-02-28T10:14:19;14.25;;;9.43;;
34242;SDS011;20504;43.214;27.920;2023-02-28T10:25:26;15.68;;;10.02;;
34242;SDS011;20504;43.214;27.920;2023-02-28T10:27:56;14.50;;;9.27;;
34242;SDS011;20504;43.214;27.920;2023-02-28T10:30:26;15.43;;;9.10;;
34242;SDS011;20504;43.214;27.920;2023-02-28T10:32:52;10.65;;;7.75;;
34242;SDS011;20504;43.214;27.920;2023-02-28T10:35:20;15.55;;;9.15;;
34242;SDS011;20504;43.214;27.920;2023-02-28T10:37:51;17.23;;;10.18;;
34242;SDS011;20504;43.214;27.920;2023-02-28T10:42:55;15.23;;;9.57;;
34242;SDS011;20504;43.214;27.920;2023-02-28T10:45:29;17.80;;;9.95;;
34242;SDS011;20504;43.214;27.920;2023-02-28T10:48:05;14.93;;;9.18;;
34242;SDS011;20504;43.214;27.920;2023-02-28T10:53:27;19.40;;;9.40;;
34242;SDS011;20504;43.214;27.920;2023-02-28T10:56:02;14.25;;;9.32;;
34242;SDS011;20504;43.214;27.920;2023-02-28T10:58:53;19.27;;;11.85;;
34242;SDS011;20504;43.214;27.920;2023-02-28T11:01:44;17.77;;;12.18;;
34242;SDS011;20504;43.214;27.920;2023-02-28T11:04:31;18.98;;;11.32;;
34242;SDS011;20504;43.214;27.920;2023-02-28T11:09:45;21.17;;;13.35;;
34242;SDS011;20504;43.214;27.920;2023-02-28T11:12:21;18.17;;;11.82;;
34242;SDS011;20504;43.214;27.920;2023-02-28T11:14:51;16.37;;;10.20;;
34242;SDS011;20504;43.214;27.920;2023-02-28T11:17:21;14.00;;;10.68;;
34242;SDS011;20504;43.214;27.920;2023-02-28T11:19:50;13.27;;;9.48;;
34242;SDS011;20504;43.214;27.920;2023-02-28T11:22:19;14.18;;;9.52;;
34242;SDS011;20504;43.214;27.920;2023-02-28T11:24:49;16.98;;;9.57;;
34242;SDS011;20504;43.214;27.920;2023-02-28T11:27:26;27.48;;;13.73;;
34242;SDS011;20504;43.214;27.920;2023-02-28T11:30:43;24.80;;;12.63;;
34242;SDS011;20504;43.214;27.920;2023-02-28T11:35:52;28.35;;;14.25;;
34242;SDS011;20504;43.214;27.920;2023-02-28T11:38:23;19.00;;;10.02;;
34242;SDS011;20504;43.214;27.920;2023-02-28T11:46:33;15.63;;;10.90;;
34242;SDS011;20504;43.214;27.920;2023-02-28T11:51:51;13.23;;;8.63;;
34242;SDS011;20504;43.214;27.920;2023-02-28T11:54:45;13.93;;;10.05;;
34242;SDS011;20504;43.214;27.920;2023-02-28T12:06:15;15.02;;;9.68;;
34242;SDS011;20504;43.214;27.920;2023-02-28T12:11:14;14.60;;;9.48;;
34242;SDS011;20504;43.214;27.920;2023-02-28T12:19:59;16.25;;;9.73;;
34242;SDS011;20504;43.214;27.920;2023-02-28T12:22:31;23.58;;;12.45;;
34242;SDS011;20504;43.214;27.920;2023-02-28T12:27:58;15.40;;;10.02;;
34242;SDS011;20504;43.214;27.920;2023-02-28T12:30:31;18.13;;;10.27;;
34242;SDS011;20504;43.214;27.920;2023-02-28T12:35:46;19.45;;;11.32;;
34242;SDS011;20504;43.214;27.920;2023-02-28T12:38:17;17.30;;;10.50;;
34242;SDS011;20504;43.214;27.920;2023-02-28T12:40:54;15.48;;;11.15;;
34242;SDS011;20504;43.214;27.920;2023-02-28T12:43:27;21.20;;;11.18;;
34242;SDS011;20504;43.214;27.920;2023-02-28T12:46:02;20.05;;;12.18;;
34242;SDS011;20504;43.214;27.920;2023-02-28T12:48:46;21.33;;;11.98;;
34242;SDS011;20504;43.214;27.920;2023-02-28T12:51:17;18.30;;;11.30;;
34242;SDS011;20504;43.214;27.920;2023-02-28T12:56:17;20.08;;;11.80;;
34242;SDS011;20504;43.214;27.920;2023-02-28T12:58:56;18.23;;;11.32;;
34242;SDS011;20504;43.214;27.920;2023-02-28T13:01:39;18.55;;;11.35;;
34242;SDS011;20504;43.214;27.920;2023-02-28T13:09:37;20.23;;;12.05;;
34242;SDS011;20504;43.214;27.920;2023-02-28T13:12:14;18.20;;;12.35;;
34242;SDS011;20504;43.214;27.920;2023-02-28T13:14:40;18.90;;;12.57;;
34242;SDS011;20504;43.214;27.920;2023-02-28T13:19:39;22.40;;;13.75;;
34242;SDS011;20504;43.214;27.920;2023-02-28T13:22:17;20.98;;;13.57;;
34242;SDS011;20504;43.214;27.920;2023-02-28T13:27:49;20.35;;;13.15;;
34242;SDS011;20504;43.214;27.920;2023-02-28T13:42:13;22.98;;;13.57;;
34242;SDS011;20504;43.214;27.920;2023-02-28T13:44:18;28.23;;;14.68;;
34242;SDS011;20504;43.214;27.920;2023-02-28T14:00:13;31.88;;;16.75;;
34242;SDS011;20504;43.214;27.920;2023-02-28T14:03:06;32.08;;;16.98;;
34242;SDS011;20504;43.214;27.920;2023-02-28T14:08:52;26.58;;;16.23;;
34242;SDS011;20504;43.214;27.920;2023-02-28T14:11:28;31.05;;;16.85;;
34242;SDS011;20504;43.214;27.920;2023-02-28T14:14:01;28.33;;;16.30;;
34242;SDS011;20504;43.214;27.920;2023-02-28T14:16:35;28.95;;;15.80;;
34242;SDS011;20504;43.214;27.920;2023-02-28T14:19:12;25.55;;;14.40;;
34242;SDS011;20504;43.214;27.920;2023-02-28T14:39:15;23.40;;;14.30;;
34242;SDS011;20504;43.214;27.920;2023-02-28T14:41:45;25.23;;;14.45;;
34242;SDS011;20504;43.214;27.920;2023-02-28T14:44:16;22.45;;;14.63;;
34242;SDS011;20504;43.214;27.920;2023-02-28T14:46:45;30.23;;;14.50;;
34242;SDS011;20504;43.214;27.920;2023-02-28T14:49:16;30.95;;;16.30;;
34242;SDS011;20504;43.214;27.920;2023-02-28T14:51:45;22.10;;;14.02;;
34242;SDS011;20504;43.214;27.920;2023-02-28T14:54:13;23.05;;;14.82;;
34242;SDS011;20504;43.214;27.920;2023-02-28T14:56:41;23.27;;;13.95;;
34242;SDS011;20504;43.214;27.920;2023-02-28T14:59:27;24.07;;;14.60;;
34242;SDS011;20504;43.214;27.920;2023-02-28T15:04:56;27.73;;;13.45;;
34242;SDS011;20504;43.214;27.920;2023-02-28T15:07:23;24.90;;;13.57;;
34242;SDS011;20504;43.214;27.920;2023-02-28T15:12:49;25.33;;;14.02;;
34242;SDS011;20504;43.214;27.920;2023-02-28T15:15:18;25.50;;;13.18;;
34242;SDS011;20504;43.214;27.920;2023-02-28T15:17:46;22.13;;;13.77;;
34242;SDS011;20504;43.214;27.920;2023-02-28T15:20:16;23.92;;;15.02;;
34242;SDS011;20504;43.214;27.920;2023-02-28T15:22:43;26.15;;;14.02;;
34242;SDS011;20504;43.214;27.920;2023-02-28T15:25:13;29.00;;;14.52;;
34242;SDS011;20504;43.214;27.920;2023-02-28T15:27:47;26.15;;;14.80;;
34242;SDS011;20504;43.214;27.920;2023-02-28T15:30:21;30.40;;;16.30;;
34242;SDS011;20504;43.214;27.920;2023-02-28T15:33:17;30.48;;;15.50;;
34242;SDS011;20504;43.214;27.920;2023-02-28T15:35:45;27.10;;;14.90;;
34242;SDS011;20504;43.214;27.920;2023-02-28T15:38:13;28.30;;;15.80;;
34242;SDS011;20504;43.214;27.920;2023-02-28T15:40:42;28.33;;;15.68;;
34242;SDS011;20504;43.214;27.920;2023-02-28T15:45:46;28.55;;;14.73;;
34242;SDS011;20504;43.214;27.920;2023-02-28T15:48:24;22.75;;;14.77;;
34242;SDS011;20504;43.214;27.920;2023-02-28T15:50:52;29.95;;;15.82;;
34242;SDS011;20504;43.214;27.920;2023-02-28T15:53:22;27.73;;;15.50;;
34242;SDS011;20504;43.214;27.920;2023-02-28T15:56:38;24.95;;;14.57;;
34242;SDS011;20504;43.214;27.920;2023-02-28T15:59:00;31.35;;;16.65;;
34242;SDS011;20504;43.214;27.920;2023-02-28T16:01:34;28.70;;;16.42;;
34242;SDS011;20504;43.214;27.920;2023-02-28T16:04:03;32.28;;;15.55;;
34242;SDS011;20504;43.214;27.920;2023-02-28T16:06:32;25.35;;;15.02;;
34242;SDS011;20504;43.214;27.920;2023-02-28T16:08:58;25.63;;;15.10;;
34242;SDS011;20504;43.214;27.920;2023-02-28T16:11:23;19.43;;;10.53;;
34242;SDS011;20504;43.214;27.920;2023-02-28T16:13:49;25.57;;;14.70;;
34242;SDS011;20504;43.214;27.920;2023-02-28T16:16:17;26.05;;;14.77;;
34242;SDS011;20504;43.214;27.920;2023-02-28T16:18:44;25.95;;;15.25;;
34242;SDS011;20504;43.214;27.920;2023-02-28T16:21:09;29.90;;;16.37;;
34242;SDS011;20504;43.214;27.920;2023-02-28T16:23:35;24.07;;;14.33;;
34242;SDS011;20504;43.214;27.920;2023-02-28T16:26:00;29.10;;;15.07;;
34242;SDS011;20504;43.214;27.920;2023-02-28T16:28:29;34.35;;;14.98;;
34242;SDS011;20504;43.214;27.920;2023-02-28T16:30:57;25.23;;;14.95;;
34242;SDS011;20504;43.214;27.920;2023-02-28T16:33:27;27.30;;;14.75;;
34242;SDS011;20504;43.214;27.920;2023-02-28T16:35:53;32.47;;;15.75;;
34242;SDS011;20504;43.214;27.920;2023-02-28T16:38:19;23.03;;;14.13;;
34242;SDS011;20504;43.214;27.920;2023-02-28T16:40:44;26.53;;;16.13;;
34242;SDS011;20504;43.214;27.920;2023-02-28T16:43:15;60.93;;;35.40;;
34242;SDS011;20504;43.214;27.920;2023-02-28T16:45:44;39.25;;;20.25;;
34242;SDS011;20504;43.214;27.920;2023-02-28T16:48:11;34.03;;;17.85;;
34242;SDS011;20504;43.214;27.920;2023-02-28T16:50:38;30.40;;;17.40;;
34242;SDS011;20504;43.214;27.920;2023-02-28T16:53:04;29.13;;;15.57;;
34242;SDS011;20504;43.214;27.920;2023-02-28T16:55:29;20.73;;;12.03;;
34242;SDS011;20504;43.214;27.920;2023-02-28T16:57:56;18.33;;;10.93;;
34242;SDS011;20504;43.214;27.920;2023-02-28T17:00:25;28.13;;;14.32;;
34242;SDS011;20504;43.214;27.920;2023-02-28T17:02:52;26.73;;;14.65;;
34242;SDS011;20504;43.214;27.920;2023-02-28T17:05:18;31.02;;;14.95;;
34242;SDS011;20504;43.214;27.920;2023-02-28T17:07:44;30.48;;;14.90;;
34242;SDS011;20504;43.214;27.920;2023-02-28T17:12:43;29.70;;;15.38;;
34242;SDS011;20504;43.214;27.920;2023-02-28T17:15:10;20.93;;;11.27;;
34242;SDS011;20504;43.214;27.920;2023-02-28T17:17:37;27.77;;;13.68;;